sensor_id;sensor_type;location;lat;lon;timestamp;pressure;altitude;pressure_sealevel;temperature;humidity
8398;BME280;4236;54.504;9.588;2023-02-04T00:00:21;102848.06;;;2.52;100.00
8398;BME280;4236;54.504;9.588;2023-02-04T00:02:49;102856.81;;;2.53;100.00
8398;BME280;4236;54.504;9.588;2023-02-04T00:05:17;102863.63;;;2.57;100.00
8398;BME280;4236;54.504;9.588;2023-02-04T00:07:46;102861.25;;;2.52;100.00
8398;BME280;4236;54.504;9.588;2023-02-04T00:10:14;102875.06;;;2.56;100.00
8398;BME280;4236;54.504;9.588;2023-02-04T00:12:42;102868.22;;;2.53;100.00
8398;BME280;4236;54.504;9.588;2023-02-04T00:15:09;102877.16;;;2.51;100.00
8398;BME280;4236;54.504;9.588;2023-02-04T00:17:37;102878.16;;;2.48;100.00
8398;BME280;4236;54.504;9.588;2023-02-04T00:20:06;102873.19;;;2.44;100.00
8398;BME280;4236;54.504;9.588;2023-02-04T00:22:34;102890.94;;;2.40;100.00
8398;BME280;4236;54.504;9.588;2023-02-04T00:25:03;102887.75;;;2.35;100.00
8398;BME280;4236;54.504;9.588;2023-02-04T00:27:31;102893.09;;;2.34;100.00
8398;BME280;4236;54.504;9.588;2023-02-04T00:29:58;102896.75;;;2.31;100.00
8398;BME280;4236;54.504;9.588;2023-02-04T00:32:26;102908.41;;;2.27;100.00
8398;BME280;4236;54.504;9.588;2023-02-04T00:34:54;102918.28;;;2.23;100.00
8398;BME280;4236;54.504;9.588;2023-02-04T00:37:21;102926.06;;;2.25;100.00
8398;BME280;4236;54.504;9.588;2023-02-04T00:39:49;102940.94;;;2.26;100.00
8398;BME280;4236;54.504;9.588;2023-02-04T00:42:18;102945.44;;;2.24;100.00
8398;BME280;4236;54.504;9.588;2023-02-04T00:44:46;102952.31;;;2.27;100.00
8398;BME280;4236;54.504;9.588;2023-02-04T00:47:14;102955.72;;;2.29;100.00
8398;BME280;4236;54.504;9.588;2023-02-04T00:49:41;102971.41;;;2.30;100.00
8398;BME280;4236;54.504;9.588;2023-02-04T00:52:09;102972.06;;;2.34;100.00
8398;BME280;4236;54.504;9.588;2023-02-04T00:54:37;102983.28;;;2.37;100.00
8398;BME280;4236;54.504;9.588;2023-02-04T00:57:04;102988.31;;;2.42;100.00
8398;BME280;4236;54.504;9.588;2023-02-04T00:59:33;102995.59;;;2.37;100.00
8398;BME280;4236;54.504;9.588;2023-02-04T01:02:01;102996.28;;;2.40;100.00
8398;BME280;4236;54.504;9.588;2023-02-04T01:04:29;103000.00;;;2.36;100.00
8398;BME280;4236;54.504;9.588;2023-02-04T01:06:57;103012.44;;;2.34;100.00
8398;BME280;4236;54.504;9.588;2023-02-04T01:09:25;103002.81;;;2.33;100.00
8398;BME280;4236;54.504;9.588;2023-02-04T01:11:52;103011.84;;;2.29;100.00
8398;BME280;4236;54.504;9.588;2023-02-04T01:14:20;103029.59;;;2.26;100.00
8398;BME280;4236;54.504;9.588;2023-02-04T01:16:49;103028.16;;;2.20;100.00
8398;BME280;4236;54.504;9.588;2023-02-04T01:19:17;103037.16;;;2.16;100.00
8398;BME280;4236;54.504;9.588;2023-02-04T01:21:46;103036.66;;;2.09;100.00
8398;BME280;4236;54.504;9.588;2023-02-04T01:24:14;103042.78;;;2.10;100.00
8398;BME280;4236;54.504;9.588;2023-02-04T01:26:42;103049.81;;;2.09;100.00
8398;BME280;4236;54.504;9.588;2023-02-04T01:29:10;103048.88;;;2.10;100.00
8398;BME280;4236;54.504;9.588;2023-02-04T01:31:37;103049.63;;;2.12;100.00
8398;BME280;4236;54.504;9.588;2023-02-04T01:34:06;103060.84;;;2.16;100.00
8398;BME280;4236;54.504;9.588;2023-02-04T01:36:34;103064.09;;;2.21;100.00
8398;BME280;4236;54.504;9.588;2023-02-04T01:39:02;103067.38;;;2.24;100.00
8398;BME280;4236;54.504;9.588;2023-02-04T01:41:29;103065.25;;;2.31;100.00
8398;BME280;4236;54.504;9.588;2023-02-04T01:43:57;103071.94;;;2.37;100.00
8398;BME280;4236;54.504;9.588;2023-02-04T01:46:25;103071.72;;;2.41;100.00
8398;BME280;4236;54.504;9.588;2023-02-04T01:48:53;103079.44;;;2.44;100.00
8398;BME280;4236;54.504;9.588;2023-02-04T01:51:25;103080.28;;;2.45;100.00
8398;BME280;4236;54.504;9.588;2023-02-04T01:53:55;103093.63;;;2.42;100.00
8398;BME280;4236;54.504;9.588;2023-02-04T01:56:24;103101.25;;;2.46;100.00
8398;BME280;4236;54.504;9.588;2023-02-04T01:58:53;103095.81;;;2.49;100.00
8398;BME280;4236;54.504;9.588;2023-02-04T02:01:35;103105.78;;;2.44;100.00
8398;BME280;4236;54.504;9.588;2023-02-04T02:04:04;103108.31;;;2.46;100.00
8398;BME280;4236;54.504;9.588;2023-02-04T02:06:33;103121.47;;;2.46;100.00
8398;BME280;4236;54.504;9.588;2023-02-04T02:09:02;103121.56;;;2.44;100.00
8398;BME280;4236;54.504;9.588;2023-02-04T02:11:31;103130.41;;;2.43;100.00
8398;BME280;4236;54.504;9.588;2023-02-04T02:13:59;103149.34;;;2.50;100.00
8398;BME280;4236;54.504;9.588;2023-02-04T02:16:27;103149.16;;;2.53;100.00
8398;BME280;4236;54.504;9.588;2023-02-04T02:18:56;103151.81;;;2.53;100.00
8398;BME280;4236;54.504;9.588;2023-02-04T02:21:36;103157.81;;;2.55;100.00
8398;BME280;4236;54.504;9.588;2023-02-04T02:24:25;103163.09;;;2.55;100.00
8398;BME280;4236;54.504;9.588;2023-02-04T02:26:55;103171.94;;;2.54;100.00
8398;BME280;4236;54.504;9.588;2023-02-04T02:29:23;103165.22;;;2.48;100.00
8398;BME280;4236;54.504;9.588;2023-02-04T02:31:53;103173.91;;;2.50;100.00
8398;BME280;4236;54.504;9.588;2023-02-04T02:34:23;103185.69;;;2.43;100.00
8398;BME280;4236;54.504;9.588;2023-02-04T02:36:51;103186.78;;;2.39;100.00
8398;BME280;4236;54.504;9.588;2023-02-04T02:39:19;103190.72;;;2.32;100.00
8398;BME280;4236;54.504;9.588;2023-02-04T02:41:49;103189.16;;;2.28;100.00
8398;BME280;4236;54.504;9.588;2023-02-04T02:44:17;103191.13;;;2.24;100.00
8398;BME280;4236;54.504;9.588;2023-02-04T02:46:45;103189.66;;;2.19;100.00
8398;BME280;4236;54.504;9.588;2023-02-04T02:49:15;103196.13;;;2.13;100.00
8398;BME280;4236;54.504;9.588;2023-02-04T02:51:44;103198.31;;;2.05;100.00
8398;BME280;4236;54.504;9.588;2023-02-04T02:54:18;103209.34;;;1.96;100.00
8398;BME280;4236;54.504;9.588;2023-02-04T02:56:49;103208.25;;;1.83;100.00
8398;BME280;4236;54.504;9.588;2023-02-04T02:59:17;103215.00;;;1.72;100.00
8398;BME280;4236;54.504;9.588;2023-02-04T03:01:46;103218.22;;;1.61;100.00
8398;BME280;4236;54.504;9.588;2023-02-04T03:04:16;103217.03;;;1.49;100.00
8398;BME280;4236;54.504;9.588;2023-02-04T03:06:45;103221.84;;;1.41;100.00
8398;BME280;4236;54.504;9.588;2023-02-04T03:09:13;103220.53;;;1.33;100.00
8398;BME280;4236;54.504;9.588;2023-02-04T03:11:41;103225.31;;;1.25;100.00
8398;BME280;4236;54.504;9.588;2023-02-04T03:14:10;103235.34;;;1.17;100.00
8398;BME280;4236;54.504;9.588;2023-02-04T03:16:38;103247.16;;;1.08;100.00
8398;BME280;4236;54.504;9.588;2023-02-04T03:19:06;103246.63;;;1.01;100.00
8398;BME280;4236;54.504;9.588;2023-02-04T03:21:34;103266.06;;;0.97;100.00
8398;BME280;4236;54.504;9.588;2023-02-04T03:24:03;103274.97;;;0.95;100.00
8398;BME280;4236;54.504;9.588;2023-02-04T03:26:31;103282.03;;;0.93;100.00
8398;BME280;4236;54.504;9.588;2023-02-04T03:28:59;103276.88;;;0.91;100.00
8398;BME280;4236;54.504;9.588;2023-02-04T03:31:28;103285.91;;;0.86;100.00
8398;BME280;4236;54.504;9.588;2023-02-04T03:33:56;103297.59;;;0.79;100.00
8398;BME280;4236;54.504;9.588;2023-02-04T03:36:24;103313.66;;;0.73;100.00
8398;BME280;4236;54.504;9.588;2023-02-04T03:38:52;103325.38;;;0.66;100.00
8398;BME280;4236;54.504;9.588;2023-02-04T03:41:19;103325.66;;;0.60;100.00
8398;BME280;4236;54.504;9.588;2023-02-04T03:43:47;103324.84;;;0.57;100.00
8398;BME280;4236;54.504;9.588;2023-02-04T03:46:15;103332.81;;;0.56;100.00
8398;BME280;4236;54.504;9.588;2023-02-04T03:48:44;103333.88;;;0.52;100.00
8398;BME280;4236;54.504;9.588;2023-02-04T03:51:12;103328.75;;;0.49;100.00
8398;BME280;4236;54.504;9.588;2023-02-04T03:53:39;103327.16;;;0.45;100.00
8398;BME280;4236;54.504;9.588;2023-02-04T03:56:07;103343.00;;;0.43;100.00
8398;BME280;4236;54.504;9.588;2023-02-04T03:58:35;103331.88;;;0.38;100.00
8398;BME280;4236;54.504;9.588;2023-02-04T04:01:03;103330.38;;;0.33;100.00
8398;BME280;4236;54.504;9.588;2023-02-04T04:03:31;103335.66;;;0.31;100.00
8398;BME280;4236;54.504;9.588;2023-02-04T04:06:00;103341.97;;;0.27;100.00
8398;BME280;4236;54.504;9.588;2023-02-04T04:08:30;103346.44;;;0.25;100.00
8398;BME280;4236;54.504;9.588;2023-02-04T04:10:58;103331.72;;;0.21;100.00
8398;BME280;4236;54.504;9.588;2023-02-04T04:13:25;103324.81;;;0.20;100.00
8398;BME280;4236;54.504;9.588;2023-02-04T04:15:53;103327.34;;;0.22;100.00
8398;BME280;4236;54.504;9.588;2023-02-04T04:18:21;103335.88;;;0.27;100.00
8398;BME280;4236;54.504;9.588;2023-02-04T04:20:48;103334.63;;;0.35;100.00
8398;BME280;4236;54.504;9.588;2023-02-04T04:23:17;103332.66;;;0.40;100.00
8398;BME280;4236;54.504;9.588;2023-02-04T04:25:45;103341.28;;;0.42;100.00
8398;BME280;4236;54.504;9.588;2023-02-04T04:28:13;103345.63;;;0.43;100.00
8398;BME280;4236;54.504;9.588;2023-02-04T04:30:41;103350.03;;;0.43;100.00
8398;BME280;4236;54.504;9.588;2023-02-04T04:33:08;103360.47;;;0.44;100.00
8398;BME280;4236;54.504;9.588;2023-02-04T04:35:36;103377.13;;;0.43;100.00
8398;BME280;4236;54.504;9.588;2023-02-04T04:38:04;103381.53;;;0.43;100.00
8398;BME280;4236;54.504;9.588;2023-02-04T04:40:33;103387.75;;;0.40;100.00
8398;BME280;4236;54.504;9.588;2023-02-04T04:43:01;103397.41;;;0.40;100.00
8398;BME280;4236;54.504;9.588;2023-02-04T04:45:29;103408.91;;;0.37;100.00
8398;BME280;4236;54.504;9.588;2023-02-04T04:47:56;103415.13;;;0.35;100.00
8398;BME280;4236;54.504;9.588;2023-02-04T04:50:24;103420.66;;;0.29;100.00
8398;BME280;4236;54.504;9.588;2023-02-04T04:52:52;103417.44;;;0.22;100.00
8398;BME280;4236;54.504;9.588;2023-02-04T04:55:19;103424.66;;;0.17;100.00
8398;BME280;4236;54.504;9.588;2023-02-04T04:57:50;103428.31;;;0.13;100.00
8398;BME280;4236;54.504;9.588;2023-02-04T05:00:19;103428.50;;;0.09;100.00
8398;BME280;4236;54.504;9.588;2023-02-04T05:02:47;103425.19;;;0.04;100.00
8398;BME280;4236;54.504;9.588;2023-02-04T05:05:15;103435.78;;;0.02;100.00
8398;BME280;4236;54.504;9.588;2023-02-04T05:07:43;103440.25;;;0.00;100.00
8398;BME280;4236;54.504;9.588;2023-02-04T05:10:10;103446.28;;;0.02;100.00
8398;BME280;4236;54.504;9.588;2023-02-04T05:12:38;103459.38;;;0.02;100.00
8398;BME280;4236;54.504;9.588;2023-02-04T05:15:08;103466.19;;;0.06;100.00
8398;BME280;4236;54.504;9.588;2023-02-04T05:17:36;103464.31;;;0.10;100.00
8398;BME280;4236;54.504;9.588;2023-02-04T05:20:04;103466.75;;;0.14;100.00
8398;BME280;4236;54.504;9.588;2023-02-04T05:22:31;103463.06;;;0.18;100.00
8398;BME280;4236;54.504;9.588;2023-02-04T05:24:59;103465.78;;;0.17;100.00
8398;BME280;4236;54.504;9.588;2023-02-04T05:27:27;103463.94;;;0.19;100.00
8398;BME280;4236;54.504;9.588;2023-02-04T05:29:55;103464.13;;;0.14;100.00
8398;BME280;4236;54.504;9.588;2023-02-04T05:32:24;103466.88;;;0.11;100.00
8398;BME280;4236;54.504;9.588;2023-02-04T05:34:52;103479.19;;;0.09;100.00
8398;BME280;4236;54.504;9.588;2023-02-04T05:37:19;103474.75;;;0.11;100.00
8398;BME280;4236;54.504;9.588;2023-02-04T05:39:47;103485.16;;;0.13;100.00
8398;BME280;4236;54.504;9.588;2023-02-04T05:42:15;103495.50;;;0.17;100.00
8398;BME280;4236;54.504;9.588;2023-02-04T05:44:42;103501.41;;;0.22;100.00
8398;BME280;4236;54.504;9.588;2023-02-04T05:47:10;103499.44;;;0.27;100.00
8398;BME280;4236;54.504;9.588;2023-02-04T05:49:39;103511.53;;;0.31;100.00
8398;BME280;4236;54.504;9.588;2023-02-04T05:52:07;103509.69;;;0.33;100.00
8398;BME280;4236;54.504;9.588;2023-02-04T05:54:34;103515.75;;;0.35;100.00
8398;BME280;4236;54.504;9.588;2023-02-04T05:57:03;103522.53;;;0.39;100.00
8398;BME280;4236;54.504;9.588;2023-02-04T05:59:30;103530.16;;;0.45;100.00
8398;BME280;4236;54.504;9.588;2023-02-04T06:01:58;103534.50;;;0.46;100.00
8398;BME280;4236;54.504;9.588;2023-02-04T06:04:26;103534.50;;;0.46;100.00
8398;BME280;4236;54.504;9.588;2023-02-04T06:06:55;103544.13;;;0.47;100.00
8398;BME280;4236;54.504;9.588;2023-02-04T06:09:22;103547.50;;;0.49;100.00
8398;BME280;4236;54.504;9.588;2023-02-04T06:11:50;103548.28;;;0.51;100.00
8398;BME280;4236;54.504;9.588;2023-02-04T06:14:18;103549.09;;;0.53;100.00
8398;BME280;4236;54.504;9.588;2023-02-04T06:16:45;103549.94;;;0.54;100.00
8398;BME280;4236;54.504;9.588;2023-02-04T06:19:13;103552.69;;;0.51;100.00
8398;BME280;4236;54.504;9.588;2023-02-04T06:21:41;103562.53;;;0.46;100.00
8398;BME280;4236;54.504;9.588;2023-02-04T06:24:10;103561.91;;;0.39;100.00
8398;BME280;4236;54.504;9.588;2023-02-04T06:26:38;103572.66;;;0.33;100.00
8398;BME280;4236;54.504;9.588;2023-02-04T06:29:05;103563.28;;;0.28;100.00
8398;BME280;4236;54.504;9.588;2023-02-04T06:31:33;103567.75;;;0.26;100.00
8398;BME280;4236;54.504;9.588;2023-02-04T06:34:04;103573.97;;;0.23;100.00
8398;BME280;4236;54.504;9.588;2023-02-04T06:36:32;103574.88;;;0.22;100.00
8398;BME280;4236;54.504;9.588;2023-02-04T06:39:00;103576.72;;;0.20;100.00
8398;BME280;4236;54.504;9.588;2023-02-04T06:41:29;103575.00;;;0.19;100.00
8398;BME280;4236;54.504;9.588;2023-02-04T06:43:56;103592.47;;;0.20;100.00
8398;BME280;4236;54.504;9.588;2023-02-04T06:46:24;103598.63;;;0.19;100.00
8398;BME280;4236;54.504;9.588;2023-02-04T06:48:52;103602.16;;;0.18;100.00
8398;BME280;4236;54.504;9.588;2023-02-04T06:51:19;103613.47;;;0.20;100.00
8398;BME280;4236;54.504;9.588;2023-02-04T06:53:47;103614.25;;;0.22;100.00
8398;BME280;4236;54.504;9.588;2023-02-04T06:56:15;103618.47;;;0.26;100.00
8398;BME280;4236;54.504;9.588;2023-02-04T06:58:44;103625.28;;;0.30;100.00
8398;BME280;4236;54.504;9.588;2023-02-04T07:01:12;103633.13;;;0.32;100.00
8398;BME280;4236;54.504;9.588;2023-02-04T07:03:39;103636.53;;;0.34;100.00
8398;BME280;4236;54.504;9.588;2023-02-04T07:06:07;103637.25;;;0.37;100.00
8398;BME280;4236;54.504;9.588;2023-02-04T07:08:35;103650.31;;;0.39;100.00
8398;BME280;4236;54.504;9.588;2023-02-04T07:11:02;103647.56;;;0.42;100.00
8398;BME280;4236;54.504;9.588;2023-02-04T07:13:30;103664.13;;;0.44;100.00
8398;BME280;4236;54.504;9.588;2023-02-04T07:15:59;103657.06;;;0.46;100.00
8398;BME280;4236;54.504;9.588;2023-02-04T07:18:27;103652.66;;;0.46;100.00
8398;BME280;4236;54.504;9.588;2023-02-04T07:20:54;103653.50;;;0.47;100.00
8398;BME280;4236;54.504;9.588;2023-02-04T07:23:22;103651.75;;;0.47;100.00
8398;BME280;4236;54.504;9.588;2023-02-04T07:25:50;103656.03;;;0.50;100.00
8398;BME280;4236;54.504;9.588;2023-02-04T07:28:19;103668.91;;;0.56;100.00
8398;BME280;4236;54.504;9.588;2023-02-04T07:30:47;103669.53;;;0.63;100.00
8398;BME280;4236;54.504;9.588;2023-02-04T07:33:16;103671.91;;;0.69;100.00
8398;BME280;4236;54.504;9.588;2023-02-04T07:35:43;103655.81;;;0.76;100.00
8398;BME280;4236;54.504;9.588;2023-02-04T07:38:11;103663.38;;;0.84;100.00
8398;BME280;4236;54.504;9.588;2023-02-04T07:40:39;103664.84;;;0.91;100.00
8398;BME280;4236;54.504;9.588;2023-02-04T07:43:07;103669.94;;;0.95;100.00
8398;BME280;4236;54.504;9.588;2023-02-04T07:45:34;103665.31;;;1.00;100.00
8398;BME280;4236;54.504;9.588;2023-02-04T07:48:02;103673.88;;;1.05;100.00
8398;BME280;4236;54.504;9.588;2023-02-04T07:50:32;103683.25;;;1.11;100.00
8398;BME280;4236;54.504;9.588;2023-02-04T07:53:00;103690.25;;;1.12;100.00
8398;BME280;4236;54.504;9.588;2023-02-04T07:55:28;103686.50;;;1.18;100.00
8398;BME280;4236;54.504;9.588;2023-02-04T07:57:56;103703.84;;;1.22;100.00
8398;BME280;4236;54.504;9.588;2023-02-04T08:00:23;103699.34;;;1.25;100.00
8398;BME280;4236;54.504;9.588;2023-02-04T08:02:51;103693.88;;;1.30;100.00
8398;BME280;4236;54.504;9.588;2023-02-04T08:05:19;103699.00;;;1.33;100.00
8398;BME280;4236;54.504;9.588;2023-02-04T08:07:48;103701.50;;;1.36;100.00
8398;BME280;4236;54.504;9.588;2023-02-04T08:10:16;103704.91;;;1.38;100.00
8398;BME280;4236;54.504;9.588;2023-02-04T08:12:44;103706.44;;;1.43;100.00
8398;BME280;4236;54.504;9.588;2023-02-04T08:15:11;103705.19;;;1.52;100.00
8398;BME280;4236;54.504;9.588;2023-02-04T08:17:39;103703.94;;;1.60;100.00
8398;BME280;4236;54.504;9.588;2023-02-04T08:20:07;103710.31;;;1.75;100.00
8398;BME280;4236;54.504;9.588;2023-02-04T08:22:38;103715.88;;;1.88;100.00
8398;BME280;4236;54.504;9.588;2023-02-04T08:25:08;103714.25;;;2.04;100.00
8398;BME280;4236;54.504;9.588;2023-02-04T08:27:37;103719.03;;;2.14;100.00
8398;BME280;4236;54.504;9.588;2023-02-04T08:30:05;103724.72;;;2.24;100.00
8398;BME280;4236;54.504;9.588;2023-02-04T08:32:33;103724.59;;;2.27;100.00
8398;BME280;4236;54.504;9.588;2023-02-04T08:35:01;103733.06;;;2.34;100.00
8398;BME280;4236;54.504;9.588;2023-02-04T08:37:32;103737.47;;;2.33;100.00
8398;BME280;4236;54.504;9.588;2023-02-04T08:39:59;103736.22;;;2.42;100.00
8398;BME280;4236;54.504;9.588;2023-02-04T08:42:28;103735.00;;;2.49;100.00
8398;BME280;4236;54.504;9.588;2023-02-04T08:44:56;103739.19;;;2.53;100.00
8398;BME280;4236;54.504;9.588;2023-02-04T08:47:24;103725.66;;;2.60;100.00
8398;BME280;4236;54.504;9.588;2023-02-04T08:49:51;103723.25;;;2.56;100.00
8398;BME280;4236;54.504;9.588;2023-02-04T08:52:19;103725.78;;;2.57;100.00
8398;BME280;4236;54.504;9.588;2023-02-04T08:54:46;103742.25;;;2.62;100.00
8398;BME280;4236;54.504;9.588;2023-02-04T08:57:14;103738.53;;;2.66;100.00
8398;BME280;4236;54.504;9.588;2023-02-04T08:59:43;103745.28;;;2.72;100.00
8398;BME280;4236;54.504;9.588;2023-02-04T09:02:11;103748.00;;;2.70;100.00
8398;BME280;4236;54.504;9.588;2023-02-04T09:04:39;103746.00;;;2.75;100.00
8398;BME280;4236;54.504;9.588;2023-02-04T09:07:06;103739.28;;;2.87;100.00
8398;BME280;4236;54.504;9.588;2023-02-04T09:09:34;103745.28;;;2.91;100.00
8398;BME280;4236;54.504;9.588;2023-02-04T09:12:02;103747.94;;;3.08;100.00
8398;BME280;4236;54.504;9.588;2023-02-04T09:14:29;103742.81;;;3.05;100.00
8398;BME280;4236;54.504;9.588;2023-02-04T09:16:59;103746.97;;;3.10;100.00
8398;BME280;4236;54.504;9.588;2023-02-04T09:19:26;103748.34;;;3.17;100.00
8398;BME280;4236;54.504;9.588;2023-02-04T09:21:54;103747.44;;;3.18;100.00
8398;BME280;4236;54.504;9.588;2023-02-04T09:24:22;103762.34;;;3.19;100.00
8398;BME280;4236;54.504;9.588;2023-02-04T09:26:49;103761.94;;;3.27;100.00
8398;BME280;4236;54.504;9.588;2023-02-04T09:29:17;103753.63;;;3.34;100.00
8398;BME280;4236;54.504;9.588;2023-02-04T09:31:45;103764.59;;;3.44;100.00
8398;BME280;4236;54.504;9.588;2023-02-04T09:34:14;103762.44;;;3.52;100.00
8398;BME280;4236;54.504;9.588;2023-02-04T09:36:42;103770.97;;;3.57;100.00
8398;BME280;4236;54.504;9.588;2023-02-04T09:39:09;103768.41;;;3.73;100.00
8398;BME280;4236;54.504;9.588;2023-02-04T09:41:38;103773.69;;;3.73;100.00
8398;BME280;4236;54.504;9.588;2023-02-04T09:44:11;103775.00;;;3.64;100.00
8398;BME280;4236;54.504;9.588;2023-02-04T09:46:41;103784.84;;;3.78;100.00
8398;BME280;4236;54.504;9.588;2023-02-04T09:49:11;103781.28;;;3.79;100.00
8398;BME280;4236;54.504;9.588;2023-02-04T09:51:40;103792.28;;;3.87;100.00
8398;BME280;4236;54.504;9.588;2023-02-04T09:54:12;103801.69;;;3.92;100.00
8398;BME280;4236;54.504;9.588;2023-02-04T09:56:40;103801.16;;;4.03;100.00
8398;BME280;4236;54.504;9.588;2023-02-04T09:59:10;103807.78;;;4.10;100.00
8398;BME280;4236;54.504;9.588;2023-02-04T10:01:39;103800.25;;;4.20;100.00
8398;BME280;4236;54.504;9.588;2023-02-04T10:04:09;103806.63;;;4.16;100.00
8398;BME280;4236;54.504;9.588;2023-02-04T10:06:40;103817.16;;;4.33;100.00
8398;BME280;4236;54.504;9.588;2023-02-04T10:09:10;103806.44;;;4.36;100.00
8398;BME280;4236;54.504;9.588;2023-02-04T10:11:39;103809.97;;;4.68;100.00
8398;BME280;4236;54.504;9.588;2023-02-04T10:14:13;103811.56;;;4.55;100.00
8398;BME280;4236;54.504;9.588;2023-02-04T10:16:42;103819.47;;;4.39;100.00
8398;BME280;4236;54.504;9.588;2023-02-04T10:19:13;103813.50;;;4.35;100.00
8398;BME280;4236;54.504;9.588;2023-02-04T10:21:43;103818.53;;;4.40;100.00
8398;BME280;4236;54.504;9.588;2023-02-04T10:24:13;103822.63;;;4.45;100.00
8398;BME280;4236;54.504;9.588;2023-02-04T10:26:42;103815.66;;;4.44;100.00
8398;BME280;4236;54.504;9.588;2023-02-04T10:29:15;103813.78;;;4.46;100.00
8398;BME280;4236;54.504;9.588;2023-02-04T10:31:44;103815.06;;;4.55;100.00
8398;BME280;4236;54.504;9.588;2023-02-04T10:34:15;103816.63;;;4.59;100.00
8398;BME280;4236;54.504;9.588;2023-02-04T10:36:47;103821.75;;;4.62;100.00
8398;BME280;4236;54.504;9.588;2023-02-04T10:39:17;103829.75;;;4.76;100.00
8398;BME280;4236;54.504;9.588;2023-02-04T10:41:49;103819.94;;;4.78;100.00
8398;BME280;4236;54.504;9.588;2023-02-04T10:44:19;103811.34;;;4.75;100.00
8398;BME280;4236;54.504;9.588;2023-02-04T10:46:48;103824.22;;;4.81;100.00
8398;BME280;4236;54.504;9.588;2023-02-04T10:49:21;103828.56;;;4.82;100.00
8398;BME280;4236;54.504;9.588;2023-02-04T10:51:51;103832.06;;;4.82;100.00
8398;BME280;4236;54.504;9.588;2023-02-04T10:54:20;103833.69;;;4.85;100.00
8398;BME280;4236;54.504;9.588;2023-02-04T10:56:58;103828.59;;;4.97;100.00
8398;BME280;4236;54.504;9.588;2023-02-04T10:59:26;103824.50;;;5.08;100.00
8398;BME280;4236;54.504;9.588;2023-02-04T11:01:55;103833.94;;;5.12;100.00
8398;BME280;4236;54.504;9.588;2023-02-04T11:04:25;103836.00;;;5.07;100.00
8398;BME280;4236;54.504;9.588;2023-02-04T11:06:55;103830.63;;;5.24;100.00
8398;BME280;4236;54.504;9.588;2023-02-04T11:09:24;103824.63;;;5.20;100.00
8398;BME280;4236;54.504;9.588;2023-02-04T11:11:52;103824.75;;;5.19;100.00
8398;BME280;4236;54.504;9.588;2023-02-04T11:14:25;103830.09;;;5.33;100.00
8398;BME280;4236;54.504;9.588;2023-02-04T11:16:54;103824.28;;;5.42;100.00
8398;BME280;4236;54.504;9.588;2023-02-04T11:19:34;103835.50;;;5.31;100.00
8398;BME280;4236;54.504;9.588;2023-02-04T11:22:20;103837.44;;;4.96;100.00
8398;BME280;4236;54.504;9.588;2023-02-04T11:24:49;103834.78;;;4.81;100.00
8398;BME280;4236;54.504;9.588;2023-02-04T11:27:21;103839.47;;;4.76;100.00
8398;BME280;4236;54.504;9.588;2023-02-04T11:29:49;103835.06;;;4.76;100.00
8398;BME280;4236;54.504;9.588;2023-02-04T11:32:29;103826.94;;;4.79;100.00
8398;BME280;4236;54.504;9.588;2023-02-04T11:35:24;103829.34;;;4.68;100.00
8398;BME280;4236;54.504;9.588;2023-02-04T11:37:54;103835.19;;;4.58;100.00
8398;BME280;4236;54.504;9.588;2023-02-04T11:40:25;103831.84;;;4.54;100.00
8398;BME280;4236;54.504;9.588;2023-02-04T11:42:59;103835.81;;;4.63;100.00
8398;BME280;4236;54.504;9.588;2023-02-04T11:45:29;103852.72;;;4.43;100.00
8398;BME280;4236;54.504;9.588;2023-02-04T11:48:00;103845.91;;;4.55;100.00
8398;BME280;4236;54.504;9.588;2023-02-04T11:50:30;103842.16;;;4.43;100.00
8398;BME280;4236;54.504;9.588;2023-02-04T11:53:00;103852.38;;;4.49;100.00
8398;BME280;4236;54.504;9.588;2023-02-04T11:55:30;103858.09;;;4.41;100.00
8398;BME280;4236;54.504;9.588;2023-02-04T11:57:58;103844.41;;;4.33;100.00
8398;BME280;4236;54.504;9.588;2023-02-04T12:00:29;103854.06;;;4.34;100.00
8398;BME280;4236;54.504;9.588;2023-02-04T12:02:59;103858.84;;;4.43;100.00
8398;BME280;4236;54.504;9.588;2023-02-04T12:05:39;103850.03;;;4.27;100.00
8398;BME280;4236;54.504;9.588;2023-02-04T12:08:24;103851.13;;;4.23;100.00
8398;BME280;4236;54.504;9.588;2023-02-04T12:11:00;103861.84;;;4.20;100.00
8398;BME280;4236;54.504;9.588;2023-02-04T12:13:28;103867.53;;;4.30;100.00
8398;BME280;4236;54.504;9.588;2023-02-04T12:16:01;103870.69;;;4.36;100.00
8398;BME280;4236;54.504;9.588;2023-02-04T12:18:31;103863.69;;;4.35;100.00
8398;BME280;4236;54.504;9.588;2023-02-04T12:20:59;103867.72;;;4.42;100.00
8398;BME280;4236;54.504;9.588;2023-02-04T12:23:29;103872.06;;;4.43;100.00
8398;BME280;4236;54.504;9.588;2023-02-04T12:25:57;103874.28;;;4.51;100.00
8398;BME280;4236;54.504;9.588;2023-02-04T12:28:25;103878.16;;;4.61;100.00
8398;BME280;4236;54.504;9.588;2023-02-04T12:30:54;103881.25;;;4.69;100.00
8398;BME280;4236;54.504;9.588;2023-02-04T12:33:22;103889.66;;;4.60;100.00
8398;BME280;4236;54.504;9.588;2023-02-04T12:35:50;103885.00;;;4.65;100.00
8398;BME280;4236;54.504;9.588;2023-02-04T12:38:18;103891.91;;;4.68;100.00
8398;BME280;4236;54.504;9.588;2023-02-04T12:40:47;103891.97;;;4.51;100.00
8398;BME280;4236;54.504;9.588;2023-02-04T12:43:15;103897.56;;;4.44;100.00
8398;BME280;4236;54.504;9.588;2023-02-04T12:45:43;103888.50;;;4.33;100.00
8398;BME280;4236;54.504;9.588;2023-02-04T12:48:14;103892.28;;;4.27;100.00
8398;BME280;4236;54.504;9.588;2023-02-04T12:50:42;103888.88;;;4.25;100.00
8398;BME280;4236;54.504;9.588;2023-02-04T12:53:10;103891.31;;;4.30;100.00
8398;BME280;4236;54.504;9.588;2023-02-04T12:55:38;103885.75;;;4.34;100.00
8398;BME280;4236;54.504;9.588;2023-02-04T12:58:07;103882.41;;;4.31;100.00
8398;BME280;4236;54.504;9.588;2023-02-04T13:00:34;103878.16;;;4.28;100.00
8398;BME280;4236;54.504;9.588;2023-02-04T13:03:02;103886.84;;;4.30;100.00
8398;BME280;4236;54.504;9.588;2023-02-04T13:05:30;103890.97;;;4.36;100.00
8398;BME280;4236;54.504;9.588;2023-02-04T13:07:58;103897.09;;;4.36;100.00
8398;BME280;4236;54.504;9.588;2023-02-04T13:10:26;103896.50;;;4.31;100.00
8398;BME280;4236;54.504;9.588;2023-02-04T13:12:54;103882.75;;;4.25;100.00
8398;BME280;4236;54.504;9.588;2023-02-04T13:15:23;103885.09;;;4.14;100.00
8398;BME280;4236;54.504;9.588;2023-02-04T13:17:51;103895.81;;;4.11;100.00